LTCB Airport Information

Runway Information
Airport Frequencies
Airport Navaids
Airport Weather Information & NOTAM
ADDS - METARS form results

(2102 UTC 23 October 2018)
Data provider http://aviationweather.gov/metar/data/
 
METAR text: LTCB 232050Z 00000KT 9999 FEW035 BKN090 16/14 Q1013
Conditions at: LTCB (AGRI , TR) observed 2050 UTC 23 October 2018
Temperature: 16.0°C (61°F)
Dewpoint: 14.0°C (57°F) [RH = 88%]
Pressure (altimeter): 29.91 inches Hg (1013.0 mb)
Winds: calm
Visibility: 6 or more miles (10+ km)
Ceiling: 9000 feet AGL
Clouds: few clouds at 3500 feet AGL
broken clouds at 9000 feet AGL
Weather: no significant weather observed at this time

Forecast for: LTCB (AGRI , TR)
Text: TAF LTCB 231940Z 2321/2406 VRB02KT 9999 FEW035 BKN090
Forecast period: 2100 UTC 23 October 2018 to 0600 UTC 24 October 2018
Forecast type: FROM: standard forecast or significant change
Winds: variable direction winds at 2 MPH (2 knots; 1.0 m/s)
Visibility: 6 or more miles 10+ km)
Ceiling: 9000 feet AGL
Clouds: few clouds at 3500 feet AGL
broken clouds at 9000 feet AGL
Weather: no significant weather forecast for this period